Main page
METAR-TAF:

METAR-TAF

Airports :

Gurayat Domestic Airport

Qurayyat, Saudi Arabia

latitude: 31-24N, longitude: 037-16E, elevation: 509 m

Current weather observation

The report was made 43 minutes ago, at 07:00 UTC
Wind 16 kt from the West/Northwest
Temperature 30°C
Humidity 31%
Pressure 1005 hPa
Visibility 10 km or more
no clouds below 1500 m and no cumulonimbus

METAR: OEGT 300700Z 30016KT CAVOK 30/11 Q1005 NOSIG

Time: 10:43 (07:43 UTC)

Forecast

The report was made 8 hours and 43 minutes ago, at 23:00 UTC
Forecast valid from 30 at 00 UTC to 31 at 06 UTC
Wind 16 kt from the North/Northwest
Visibility 10 km or more
no clouds below 1500 m and no cumulonimbus
Becoming
from 31 at 00 UTC to 31 at 02 UTC
Wind 3 kt from variable directions

TAF: OEGT 292300Z 3000/3106 33016KT CAVOK BECMG 3100/3102 VRB03KT

Weather observations and forecasts of more than 4000 airports (METAR and TAF reports).

The available stations are represented by yellow and red dots on the map.

Hover mouse over dot to see the name of the station.

Then click to see weather observations and forecasts.

To change the map : click on the green buttons with a black cross to zoom in, on the green button with a dash to zoom out, or on the green arrows for adjacent maps.


METAR-TAF: